Language: 


Des rapports , des résumés tant et plus, au choix de chacun....


Données Historiques de Météogheer
Journalier Rapport pour Janvier 25, 2018 Unitée:  Les deux    Impériale   Métrique
Suivant Jour »
Journalier Hebdomadaire Mensuel Annuel Sur mesure
  Max: Min: Moyenne:
Température: 50.7 °F /  10.4 °C 42.4 °F /  5.8 °C 46.8 °F /  8.2 °C
Point de rosée: 48.2 °F /  9.0 °C 42.8 °F /  6.0 °C 45.9 °F /  7.7 °C
Humidité: 98% 85% 95%
Vent: 10.1mph /  16.3km/h - 4.3mph /  7km/h
Rafales: 13mph /  20.9km/h - -
Vent- - SSW
Pression: 29.9 in /  1012.1 hPa 29.8 in /  1009.0 hPa -
Pluie: 0.01 in /  0.3 mm    
Historical Graphs
 
 
Données tabulaires pour Janvier 25, 2018
Heure Température Point de rosée Pression Vent Vent Rafales Humidité Pluie Taux (Horaire) Conditions
00:01 46.2 °F /  7.9 °C 46.4 °F /  8.0 °C 29.9in /  1011.1hPa SW 8.5mph /  13.7km/h 12.1mph /  19.5km/h 98% 0in /  0.0mm
00:06 46.2 °F /  7.9 °C 46.4 °F /  8.0 °C 29.9in /  1011.1hPa SW 10.1mph /  16.3km/h 12.1mph /  19.5km/h 98% 0in /  0.0mm
00:11 46.2 °F /  7.9 °C 46.4 °F /  8.0 °C 29.9in /  1011.1hPa SW 8.1mph /  13.0km/h 10.7mph /  17.2km/h 98% 0in /  0.0mm
00:16 46.2 °F /  7.9 °C 46.4 °F /  8.0 °C 29.8in /  1010.0hPa SSW 8.7mph /  14.0km/h 10.7mph /  17.2km/h 98% 0in /  0.0mm
00:21 46.2 °F /  7.9 °C 46.4 °F /  8.0 °C 29.8in /  1010.0hPa SW 4.9mph /  7.9km/h 10.3mph /  16.6km/h 98% 0in /  0.0mm
00:26 46.2 °F /  7.9 °C 46.4 °F /  8.0 °C 29.8in /  1010.0hPa SSW 5.4mph /  8.7km/h 10.3mph /  16.6km/h 98% 0in /  0.0mm
00:31 46.2 °F /  7.9 °C 46.4 °F /  8.0 °C 29.9in /  1011.1hPa SSW 6.5mph /  10.5km/h 10.3mph /  16.6km/h 98% 0in /  0.0mm
00:36 46.2 °F /  7.9 °C 46.4 °F /  8.0 °C 29.9in /  1011.1hPa SW 7.2mph /  11.6km/h 10.3mph /  16.6km/h 98% 0in /  0.0mm
00:41 46.4 °F /  8.0 °C 46.4 °F /  8.0 °C 29.9in /  1011.1hPa SW 4.9mph /  7.9km/h 10.5mph /  16.9km/h 98% 0in /  0.0mm
00:46 46.2 °F /  7.9 °C 46.4 °F /  8.0 °C 29.8in /  1010.0hPa SW 5.4mph /  8.7km/h 10.5mph /  16.9km/h 98% 0in /  0.0mm
00:51 46.4 °F /  8.0 °C 46.4 °F /  8.0 °C 29.8in /  1010.0hPa WSW 7.4mph /  11.9km/h 10.3mph /  16.6km/h 98% 0in /  0.0mm
00:56 46.4 °F /  8.0 °C 46.4 °F /  8.0 °C 29.8in /  1010.0hPa SSW 7.6mph /  12.2km/h 10.3mph /  16.6km/h 98% 0in /  0.0mm
01:01 46.4 °F /  8.0 °C 46.4 °F /  8.0 °C 29.9in /  1011.1hPa SSW 7.4mph /  11.9km/h 9.6mph /  15.4km/h 98% 0in /  0.0mm
01:06 46.4 °F /  8.0 °C 46.4 °F /  8.0 °C 29.9in /  1011.1hPa SW 6mph /  9.7km/h 10.1mph /  16.3km/h 98% 0in /  0.0mm
01:11 46.4 °F /  8.0 °C 46.4 °F /  8.0 °C 29.9in /  1011.1hPa SSW 6.3mph /  10.1km/h 10.1mph /  16.3km/h 98% 0in /  0.0mm
01:16 46.4 °F /  8.0 °C 46.4 °F /  8.0 °C 29.9in /  1011.1hPa SW 7.6mph /  12.2km/h 10.1mph /  16.3km/h 98% 0in /  0.0mm
01:21 46.4 °F /  8.0 °C 46.4 °F /  8.0 °C 29.9in /  1011.1hPa SSW 5.6mph /  9.0km/h 10.1mph /  16.3km/h 98% 0in /  0.0mm
01:26 46.6 °F /  8.1 °C 46.4 °F /  8.0 °C 29.9in /  1011.1hPa SW 8.7mph /  14.0km/h 10.7mph /  17.2km/h 98% 0in /  0.0mm
01:31 46.6 °F /  8.1 °C 46.4 °F /  8.0 °C 29.9in /  1011.1hPa SSW 6.5mph /  10.5km/h 13mph /  20.9km/h 98% 0in /  0.0mm
01:36 46.6 °F /  8.1 °C 46.4 °F /  8.0 °C 29.9in /  1011.1hPa SSW 7.6mph /  12.2km/h 13mph /  20.9km/h 98% 0in /  0.0mm
01:41 46.6 °F /  8.1 °C 46.4 °F /  8.0 °C 29.9in /  1011.1hPa WSW 8.7mph /  14.0km/h 10.5mph /  16.9km/h 98% 0in /  0.0mm
01:46 46.6 °F /  8.1 °C 46.4 °F /  8.0 °C 29.9in /  1011.1hPa SW 6.3mph /  10.1km/h 10.1mph /  16.3km/h 98% 0in /  0.0mm
01:51 46.4 °F /  8.0 °C 46.4 °F /  8.0 °C 29.9in /  1011.1hPa WSW 6.5mph /  10.5km/h 10.1mph /  16.3km/h 98% 0in /  0.0mm
01:57 46.4 °F /  8.0 °C 46.4 °F /  8.0 °C 29.9in /  1011.1hPa SSW 6.5mph /  10.5km/h 8.1mph /  13.0km/h 98% 0in /  0.0mm
02:02 46.4 °F /  8.0 °C 46.4 °F /  8.0 °C 29.9in /  1011.1hPa SSW 4.9mph /  7.9km/h 8.1mph /  13.0km/h 98% 0in /  0.0mm
02:07 46.4 °F /  8.0 °C 46.4 °F /  8.0 °C 29.9in /  1011.1hPa SW 6.3mph /  10.1km/h 8.1mph /  13.0km/h 98% 0in /  0.0mm
02:12 46.6 °F /  8.1 °C 46.4 °F /  8.0 °C 29.9in /  1011.1hPa SW 5.8mph /  9.3km/h 7.8mph /  12.6km/h 98% 0in /  0.0mm
02:17 46.6 °F /  8.1 °C 46.4 °F /  8.0 °C 29.9in /  1011.1hPa SW 5.8mph /  9.3km/h 10.1mph /  16.3km/h 98% 0in /  0.0mm
02:22 46.8 °F /  8.2 °C 46.4 °F /  8.0 °C 29.9in /  1011.1hPa SSW 8.5mph /  13.7km/h 10.1mph /  16.3km/h 98% 0in /  0.0mm
02:27 46.8 °F /  8.2 °C 46.4 °F /  8.0 °C 29.9in /  1011.1hPa SSW 7.2mph /  11.6km/h 9.6mph /  15.4km/h 98% 0in /  0.0mm
02:32 46.8 °F /  8.2 °C 46.4 °F /  8.0 °C 29.9in /  1011.1hPa SW 6.3mph /  10.1km/h 9.6mph /  15.4km/h 98% 0in /  0.0mm
02:37 46.8 °F /  8.2 °C 46.4 °F /  8.0 °C 29.9in /  1011.1hPa SW 6mph /  9.7km/h 9.6mph /  15.4km/h 98% 0in /  0.0mm
02:42 46.6 °F /  8.1 °C 46.4 °F /  8.0 °C 29.9in /  1011.1hPa SW 6.3mph /  10.1km/h 10.1mph /  16.3km/h 98% 0in /  0.0mm
02:47 46.6 °F /  8.1 °C 46.4 °F /  8.0 °C 29.9in /  1011.1hPa SSW 6.9mph /  11.1km/h 10.1mph /  16.3km/h 98% 0in /  0.0mm
02:52 46.6 °F /  8.1 °C 46.4 °F /  8.0 °C 29.9in /  1011.1hPa SW 8.1mph /  13.0km/h 10.7mph /  17.2km/h 98% 0in /  0.0mm
02:57 46.6 °F /  8.1 °C 46.4 °F /  8.0 °C 29.9in /  1011.1hPa SSW 7.6mph /  12.2km/h 10.7mph /  17.2km/h 98% 0in /  0.0mm
03:02 46.4 °F /  8.0 °C 46.4 °F /  8.0 °C 29.9in /  1011.1hPa WSW 8.1mph /  13.0km/h 8.5mph /  13.7km/h 98% 0in /  0.0mm
03:07 46.4 °F /  8.0 °C 46.4 °F /  8.0 °C 29.9in /  1011.1hPa WSW 5.6mph /  9.0km/h 9.8mph /  15.8km/h 98% 0in /  0.0mm
03:12 46.2 °F /  7.9 °C 46.4 °F /  8.0 °C 29.9in /  1011.1hPa SW 5.8mph /  9.3km/h 9.8mph /  15.8km/h 98% 0in /  0.0mm
03:17 46.2 °F /  7.9 °C 46.4 °F /  8.0 °C 29.9in /  1011.1hPa SW 4.9mph /  7.9km/h 8.5mph /  13.7km/h 98% 0in /  0.0mm
03:22 46.2 °F /  7.9 °C 46.4 °F /  8.0 °C 29.9in /  1011.1hPa SW 5.4mph /  8.7km/h 8.7mph /  14.0km/h 98% 0in /  0.0mm
03:27 46 °F /  7.8 °C 46.4 °F /  8.0 °C 29.9in /  1011.1hPa SW 5.6mph /  9.0km/h 8.7mph /  14.0km/h 98% 0in /  0.0mm
03:32 46 °F /  7.8 °C 46.4 °F /  8.0 °C 29.9in /  1011.1hPa SSW 6.3mph /  10.1km/h 7.8mph /  12.6km/h 98% 0in /  0.0mm
03:37 46 °F /  7.8 °C 46.4 °F /  8.0 °C 29.9in /  1011.1hPa SSW 5.6mph /  9.0km/h 8.7mph /  14.0km/h 98% 0in /  0.0mm
03:42 46 °F /  7.8 °C 46.4 °F /  8.0 °C 29.9in /  1011.1hPa SSW 6mph /  9.7km/h 9.8mph /  15.8km/h 98% 0in /  0.0mm
03:47 46 °F /  7.8 °C 46.4 °F /  8.0 °C 29.9in /  1011.1hPa SSW 8.7mph /  14.0km/h 10.3mph /  16.6km/h 98% 0in /  0.0mm
03:52 46 °F /  7.8 °C 46.4 °F /  8.0 °C 29.9in /  1011.1hPa SW 8.5mph /  13.7km/h 10.3mph /  16.6km/h 98% 0in /  0.0mm
03:57 46 °F /  7.8 °C 46.4 °F /  8.0 °C 29.9in /  1011.1hPa WSW 7.4mph /  11.9km/h 10.7mph /  17.2km/h 98% 0in /  0.0mm
04:02 46 °F /  7.8 °C 46.4 °F /  8.0 °C 29.9in /  1011.1hPa SSW 8.5mph /  13.7km/h 10.7mph /  17.2km/h 98% 0in /  0.0mm
04:07 46 °F /  7.8 °C 46.4 °F /  8.0 °C 29.9in /  1011.1hPa SSW 5.8mph /  9.3km/h 10.1mph /  16.3km/h 98% 0in /  0.0mm
04:12 46 °F /  7.8 °C 46.4 °F /  8.0 °C 29.9in /  1011.1hPa SSW 6.9mph /  11.1km/h 8.5mph /  13.7km/h 98% 0in /  0.0mm
04:17 46 °F /  7.8 °C 46.4 °F /  8.0 °C 29.9in /  1011.1hPa SSW 8.5mph /  13.7km/h 8.5mph /  13.7km/h 98% 0in /  0.0mm
04:22 46 °F /  7.8 °C 46.4 °F /  8.0 °C 29.9in /  1011.1hPa SSW 3.4mph /  5.5km/h 8.5mph /  13.7km/h 98% 0in /  0.0mm
04:27 46 °F /  7.8 °C 46.4 °F /  8.0 °C 29.9in /  1011.1hPa SSW 6.3mph /  10.1km/h 9.8mph /  15.8km/h 98% 0in /  0.0mm
04:33 46.2 °F /  7.9 °C 46.4 °F /  8.0 °C 29.9in /  1011.1hPa SSW 7.4mph /  11.9km/h 9.8mph /  15.8km/h 98% 0in /  0.0mm
04:38 46.4 °F /  8.0 °C 46.4 °F /  8.0 °C 29.9in /  1011.1hPa SSW 5.4mph /  8.7km/h 8.7mph /  14.0km/h 98% 0.01in /  0.3mm
04:43 46.4 °F /  8.0 °C 46.4 °F /  8.0 °C 29.9in /  1011.1hPa SW 3.8mph /  6.1km/h 8.5mph /  13.7km/h 98% 0.01in /  0.3mm
04:48 46.2 °F /  7.9 °C 46.4 °F /  8.0 °C 29.9in /  1011.1hPa SSW 5.8mph /  9.3km/h 7.6mph /  12.2km/h 98% 0.01in /  0.3mm
04:53 46.2 °F /  7.9 °C 46.4 °F /  8.0 °C 29.9in /  1011.1hPa SSW 4.9mph /  7.9km/h 6.5mph /  10.5km/h 98% 0.01in /  0.3mm
04:58 46.2 °F /  7.9 °C 46.4 °F /  8.0 °C 29.9in /  1011.1hPa SSW 7.6mph /  12.2km/h 8.7mph /  14.0km/h 98% 0.01in /  0.3mm
05:03 46.2 °F /  7.9 °C 46.4 °F /  8.0 °C 29.8in /  1010.0hPa SSW 4.9mph /  7.9km/h 8.7mph /  14.0km/h 98% 0.01in /  0.3mm
05:08 46.2 °F /  7.9 °C 46.4 °F /  8.0 °C 29.8in /  1010.0hPa SSW 5.4mph /  8.7km/h 7.8mph /  12.6km/h 98% 0.01in /  0.3mm
05:13 46.4 °F /  8.0 °C 46.4 °F /  8.0 °C 29.8in /  1010.0hPa SW 5.8mph /  9.3km/h 7.4mph /  11.9km/h 98% 0.01in /  0.3mm
05:18 46.2 °F /  7.9 °C 46.4 °F /  8.0 °C 29.9in /  1011.1hPa SSW 8.5mph /  13.7km/h 8.5mph /  13.7km/h 98% 0.01in /  0.3mm
05:23 46.2 °F /  7.9 °C 46.4 °F /  8.0 °C 29.9in /  1011.1hPa South 7.6mph /  12.2km/h 9.8mph /  15.8km/h 98% 0.01in /  0.3mm
05:28 46.2 °F /  7.9 °C 46.4 °F /  8.0 °C 29.9in /  1011.1hPa SSW 4.7mph /  7.6km/h 9.8mph /  15.8km/h 98% 0.01in /  0.3mm
05:33 46.2 °F /  7.9 °C 46.4 °F /  8.0 °C 29.9in /  1011.1hPa SW 4mph /  6.4km/h 7.8mph /  12.6km/h 98% 0.01in /  0.3mm
05:38 46.2 °F /  7.9 °C 46.4 °F /  8.0 °C 29.9in /  1011.1hPa SSW 5.4mph /  8.7km/h 7.2mph /  11.6km/h 98% 0in /  0.0mm
05:43 46.4 °F /  8.0 °C 46.4 °F /  8.0 °C 29.9in /  1011.1hPa SW 6mph /  9.7km/h 7.2mph /  11.6km/h 98% 0in /  0.0mm
05:48 46.4 °F /  8.0 °C 46.4 °F /  8.0 °C 29.9in /  1011.1hPa SSW 3.4mph /  5.5km/h 6.5mph /  10.5km/h 98% 0in /  0.0mm
05:53 46.4 °F /  8.0 °C 46.4 °F /  8.0 °C 29.9in /  1011.1hPa SSW 5.4mph /  8.7km/h 6.5mph /  10.5km/h 98% 0in /  0.0mm
05:58 46.4 °F /  8.0 °C 46.4 °F /  8.0 °C 29.9in /  1011.1hPa SW 6.3mph /  10.1km/h 6.3mph /  10.1km/h 98% 0in /  0.0mm
06:03 46.4 °F /  8.0 °C 46.4 °F /  8.0 °C 29.9in /  1011.1hPa SW 6mph /  9.7km/h 7.4mph /  11.9km/h 98% 0in /  0.0mm
06:08 46.4 °F /  8.0 °C 46.4 °F /  8.0 °C 29.9in /  1011.1hPa SSW 5.4mph /  8.7km/h 7.6mph /  12.2km/h 98% 0in /  0.0mm
06:13 46.4 °F /  8.0 °C 46.4 °F /  8.0 °C 29.9in /  1011.1hPa SSW 3.6mph /  5.8km/h 7.6mph /  12.2km/h 98% 0in /  0.0mm
06:18 46.4 °F /  8.0 °C 46.4 °F /  8.0 °C 29.9in /  1011.1hPa SSW 7.8mph /  12.6km/h 8.1mph /  13.0km/h 98% 0in /  0.0mm
06:23 46.4 °F /  8.0 °C 46.4 °F /  8.0 °C 29.9in /  1011.1hPa SW 5.4mph /  8.7km/h 8.7mph /  14.0km/h 98% 0in /  0.0mm
06:28 46.4 °F /  8.0 °C 46.4 °F /  8.0 °C 29.9in /  1011.1hPa SSW 6.5mph /  10.5km/h 8.7mph /  14.0km/h 98% 0in /  0.0mm
06:33 46.4 °F /  8.0 °C 46.4 °F /  8.0 °C 29.9in /  1011.1hPa SSW 6mph /  9.7km/h 6.5mph /  10.5km/h 98% 0in /  0.0mm
06:38 46.2 °F /  7.9 °C 46.4 °F /  8.0 °C 29.9in /  1011.1hPa SSW 7.4mph /  11.9km/h 7.4mph /  11.9km/h 98% 0in /  0.0mm
06:43 46.2 °F /  7.9 °C 46.4 °F /  8.0 °C 29.9in /  1011.1hPa SSW 4.3mph /  6.9km/h 7.4mph /  11.9km/h 98% 0in /  0.0mm
06:48 46 °F /  7.8 °C 46.4 °F /  8.0 °C 29.9in /  1011.1hPa SSW 3.4mph /  5.5km/h 7.4mph /  11.9km/h 98% 0in /  0.0mm
06:53 46 °F /  7.8 °C 46.4 °F /  8.0 °C 29.9in /  1011.1hPa SSW 2.7mph /  4.3km/h 5.8mph /  9.3km/h 98% 0in /  0.0mm
06:58 46 °F /  7.8 °C 46.4 °F /  8.0 °C 29.9in /  1011.1hPa SSW 4.3mph /  6.9km/h 6mph /  9.7km/h 98% 0in /  0.0mm
07:04 46.2 °F /  7.9 °C 46.4 °F /  8.0 °C 29.9in /  1011.1hPa SSW 4mph /  6.4km/h 6mph /  9.7km/h 98% 0in /  0.0mm
07:09 46.2 °F /  7.9 °C 46.4 °F /  8.0 °C 29.9in /  1011.1hPa SSW 3.1mph /  5.0km/h 6mph /  9.7km/h 98% 0in /  0.0mm
07:14 46.2 °F /  7.9 °C 46.4 °F /  8.0 °C 29.9in /  1011.1hPa SSW 6.3mph /  10.1km/h 6.3mph /  10.1km/h 98% 0in /  0.0mm
07:19 46.4 °F /  8.0 °C 46.4 °F /  8.0 °C 29.9in /  1011.1hPa South 2.2mph /  3.5km/h 6.3mph /  10.1km/h 98% 0in /  0.0mm
07:24 46.4 °F /  8.0 °C 46.4 °F /  8.0 °C 29.9in /  1011.1hPa Calm   6.3mph /  10.1km/h 98% 0in /  0.0mm
07:29 46.4 °F /  8.0 °C 46.4 °F /  8.0 °C 29.9in /  1011.1hPa South 3.1mph /  5.0km/h 4.9mph /  7.9km/h 98% 0in /  0.0mm
07:31 46.4 °F /  8.0 °C 46.4 °F /  8.0 °C 29.9in /  1011.1hPa Calm   4.9mph /  7.9km/h 98% 0in /  0.0mm
07:36 46.2 °F /  7.9 °C 46.4 °F /  8.0 °C 29.9in /  1011.1hPa South 2.5mph /  4.0km/h 4.3mph /  6.9km/h 98% 0in /  0.0mm
07:41 46.2 °F /  7.9 °C 46.4 °F /  8.0 °C 29.9in /  1011.1hPa Calm   4.7mph /  7.6km/h 98% 0in /  0.0mm
07:46 46 °F /  7.8 °C 46.4 °F /  8.0 °C 29.9in /  1011.1hPa South 2.2mph /  3.5km/h 5.4mph /  8.7km/h 98% 0in /  0.0mm
07:51 45.9 °F /  7.7 °C 46.4 °F /  8.0 °C 29.9in /  1011.1hPa SSW 4mph /  6.4km/h 5.4mph /  8.7km/h 98% 0in /  0.0mm
07:56 45.9 °F /  7.7 °C 46.4 °F /  8.0 °C 29.9in /  1011.1hPa SSW 4mph /  6.4km/h 4.9mph /  7.9km/h 98% 0in /  0.0mm
08:01 45.7 °F /  7.6 °C 46.4 °F /  8.0 °C 29.9in /  1011.1hPa Calm   4.9mph /  7.9km/h 98% 0in /  0.0mm
08:06 45.7 °F /  7.6 °C 46.4 °F /  8.0 °C 29.9in /  1011.1hPa SSW 3.1mph /  5.0km/h 7.8mph /  12.6km/h 98% 0in /  0.0mm
08:11 45.5 °F /  7.5 °C 46.4 °F /  8.0 °C 29.9in /  1011.1hPa South 5.8mph /  9.3km/h 7.8mph /  12.6km/h 98% 0in /  0.0mm
08:17 45.5 °F /  7.5 °C 46.4 °F /  8.0 °C 29.9in /  1011.1hPa SSW 3.1mph /  5.0km/h 7.4mph /  11.9km/h 98% 0in /  0.0mm
08:22 45.5 °F /  7.5 °C 46.4 °F /  8.0 °C 29.9in /  1011.1hPa South 4.3mph /  6.9km/h 7.4mph /  11.9km/h 98% 0in /  0.0mm
08:27 45.3 °F /  7.4 °C 44.6 °F /  7.0 °C 29.9in /  1011.1hPa SSW 5.4mph /  8.7km/h 7.4mph /  11.9km/h 98% 0in /  0.0mm
08:32 45.3 °F /  7.4 °C 44.6 °F /  7.0 °C 29.8in /  1010.0hPa South 3.8mph /  6.1km/h 7.4mph /  11.9km/h 98% 0in /  0.0mm
08:37 45.3 °F /  7.4 °C 44.6 °F /  7.0 °C 29.8in /  1010.0hPa Calm   5.4mph /  8.7km/h 98% 0in /  0.0mm
08:42 45.3 °F /  7.4 °C 44.6 °F /  7.0 °C 29.8in /  1010.0hPa Calm   5.4mph /  8.7km/h 98% 0in /  0.0mm
08:47 45.3 °F /  7.4 °C 44.6 °F /  7.0 °C 29.9in /  1011.1hPa South 2.7mph /  4.3km/h 5.4mph /  8.7km/h 98% 0in /  0.0mm
08:52 45.3 °F /  7.4 °C 44.6 °F /  7.0 °C 29.9in /  1011.1hPa Calm   4.9mph /  7.9km/h 98% 0in /  0.0mm
08:57 45.3 °F /  7.4 °C 44.6 °F /  7.0 °C 29.9in /  1011.1hPa SSW 5.8mph /  9.3km/h 7.4mph /  11.9km/h 98% 0in /  0.0mm
09:02 45.5 °F /  7.5 °C 46.4 °F /  8.0 °C 29.9in /  1011.1hPa South 5.6mph /  9.0km/h 7.4mph /  11.9km/h 98% 0in /  0.0mm
09:07 45.7 °F /  7.6 °C 46.4 °F /  8.0 °C 29.9in /  1011.1hPa SSW 5.4mph /  8.7km/h 8.1mph /  13.0km/h 98% 0in /  0.0mm
09:12 45.9 °F /  7.7 °C 46.4 °F /  8.0 °C 29.9in /  1011.1hPa SSW 3.4mph /  5.5km/h 8.1mph /  13.0km/h 98% 0in /  0.0mm
09:17 45.9 °F /  7.7 °C 46.4 °F /  8.0 °C 29.9in /  1011.1hPa SW 3.4mph /  5.5km/h 8.1mph /  13.0km/h 98% 0in /  0.0mm
09:22 46 °F /  7.8 °C 46.4 °F /  8.0 °C 29.9in /  1011.1hPa SSW 4.9mph /  7.9km/h 10.3mph /  16.6km/h 98% 0in /  0.0mm
09:27 46.2 °F /  7.9 °C 46.4 °F /  8.0 °C 29.9in /  1011.1hPa SSW 6mph /  9.7km/h 10.3mph /  16.6km/h 98% 0in /  0.0mm
09:32 46.2 °F /  7.9 °C 46.4 °F /  8.0 °C 29.9in /  1011.1hPa SSW 5.6mph /  9.0km/h 8.7mph /  14.0km/h 98% 0in /  0.0mm
09:37 46.2 °F /  7.9 °C 46.4 °F /  8.0 °C 29.9in /  1011.1hPa SSW 4mph /  6.4km/h 8.5mph /  13.7km/h 98% 0in /  0.0mm
09:42 46.2 °F /  7.9 °C 46.4 °F /  8.0 °C 29.9in /  1011.1hPa SSW 5.6mph /  9.0km/h 8.5mph /  13.7km/h 98% 0in /  0.0mm
09:47 46.4 °F /  8.0 °C 46.4 °F /  8.0 °C 29.8in /  1010.0hPa SSW 6.5mph /  10.5km/h 8.7mph /  14.0km/h 98% 0in /  0.0mm
09:52 46.4 °F /  8.0 °C 46.4 °F /  8.0 °C 29.8in /  1010.0hPa South 4.3mph /  6.9km/h 8.7mph /  14.0km/h 98% 0in /  0.0mm
09:57 46.6 °F /  8.1 °C 46.4 °F /  8.0 °C 29.8in /  1010.0hPa SSW 5.4mph /  8.7km/h 7.8mph /  12.6km/h 98% 0in /  0.0mm
10:02 46.8 °F /  8.2 °C 46.4 °F /  8.0 °C 29.9in /  1011.1hPa SSW 5.6mph /  9.0km/h 10.3mph /  16.6km/h 98% 0in /  0.0mm
10:07 46.8 °F /  8.2 °C 46.4 °F /  8.0 °C 29.9in /  1011.1hPa SW 7.2mph /  11.6km/h 10.3mph /  16.6km/h 98% 0in /  0.0mm
10:12 46.9 °F /  8.3 °C 48.2 °F /  9.0 °C 29.9in /  1011.1hPa SW 6.5mph /  10.5km/h 8.7mph /  14.0km/h 98% 0in /  0.0mm
10:17 47.1 °F /  8.4 °C 48.2 °F /  9.0 °C 29.9in /  1011.1hPa SW 4mph /  6.4km/h 8.7mph /  14.0km/h 98% 0in /  0.0mm
10:22 47.1 °F /  8.4 °C 48.2 °F /  9.0 °C 29.9in /  1011.1hPa SSW 8.9mph /  14.3km/h 8.9mph /  14.3km/h 98% 0in /  0.0mm
10:27 47.3 °F /  8.5 °C 48.2 °F /  9.0 °C 29.9in /  1011.1hPa SSW 5.4mph /  8.7km/h 8.9mph /  14.3km/h 98% 0in /  0.0mm
10:32 47.3 °F /  8.5 °C 48.2 °F /  9.0 °C 29.8in /  1010.0hPa SW 6.3mph /  10.1km/h 8.1mph /  13.0km/h 98% 0in /  0.0mm
10:37 47.3 °F /  8.5 °C 48.2 °F /  9.0 °C 29.8in /  1010.0hPa SSW 5.8mph /  9.3km/h 8.1mph /  13.0km/h 98% 0in /  0.0mm
10:42 47.5 °F /  8.6 °C 48.2 °F /  9.0 °C 29.8in /  1010.0hPa SSW 5.4mph /  8.7km/h 6.3mph /  10.1km/h 98% 0in /  0.0mm
10:47 47.5 °F /  8.6 °C 48.2 °F /  9.0 °C 29.8in /  1010.0hPa South 3.8mph /  6.1km/h 6.3mph /  10.1km/h 98% 0in /  0.0mm
10:53 47.7 °F /  8.7 °C 48.2 °F /  9.0 °C 29.8in /  1010.0hPa SSW 5.6mph /  9.0km/h 6.3mph /  10.1km/h 98% 0in /  0.0mm
10:58 47.7 °F /  8.7 °C 48.2 °F /  9.0 °C 29.8in /  1010.0hPa SSW 4.3mph /  6.9km/h 6.7mph /  10.8km/h 98% 0in /  0.0mm
11:03 47.8 °F /  8.8 °C 48.2 °F /  9.0 °C 29.9in /  1011.1hPa SW 4mph /  6.4km/h 6.7mph /  10.8km/h 98% 0in /  0.0mm
11:08 47.8 °F /  8.8 °C 48.2 °F /  9.0 °C 29.9in /  1011.1hPa SSW 5.6mph /  9.0km/h 7.4mph /  11.9km/h 98% 0in /  0.0mm
11:13 48 °F /  8.9 °C 48.2 °F /  9.0 °C 29.9in /  1011.1hPa SSW 4.3mph /  6.9km/h 8.1mph /  13.0km/h 98% 0in /  0.0mm
11:18 48 °F /  8.9 °C 48.2 °F /  9.0 °C 29.8in /  1010.0hPa SW 5.6mph /  9.0km/h 8.1mph /  13.0km/h 98% 0in /  0.0mm
11:23 48.2 °F /  9.0 °C 48.2 °F /  9.0 °C 29.8in /  1010.0hPa SW 6.5mph /  10.5km/h 8.5mph /  13.7km/h 97% 0in /  0.0mm
11:28 48.2 °F /  9.0 °C 48.2 °F /  9.0 °C 29.8in /  1010.0hPa SSW 5.6mph /  9.0km/h 8.5mph /  13.7km/h 97% 0in /  0.0mm
11:33 48.4 °F /  9.1 °C 48.2 °F /  9.0 °C 29.9in /  1011.1hPa SSW 4mph /  6.4km/h 8.1mph /  13.0km/h 97% 0in /  0.0mm
11:38 48.6 °F /  9.2 °C 48.2 °F /  9.0 °C 29.9in /  1011.1hPa SSW 7.8mph /  12.6km/h 8.1mph /  13.0km/h 97% 0in /  0.0mm
11:43 48.7 °F /  9.3 °C 48.2 °F /  9.0 °C 29.8in /  1010.0hPa SSW 4.9mph /  7.9km/h 8.5mph /  13.7km/h 97% 0in /  0.0mm
11:48 48.7 °F /  9.3 °C 48.2 °F /  9.0 °C 29.8in /  1010.0hPa SSW 4mph /  6.4km/h 8.5mph /  13.7km/h 96% 0in /  0.0mm
11:53 48.7 °F /  9.3 °C 48.2 °F /  9.0 °C 29.8in /  1010.0hPa SW 8.5mph /  13.7km/h 9.8mph /  15.8km/h 96% 0in /  0.0mm
11:58 48.9 °F /  9.4 °C 48.2 °F /  9.0 °C 29.9in /  1011.1hPa WSW 5.4mph /  8.7km/h 11.2mph /  18.0km/h 96% 0in /  0.0mm
12:03 49.1 °F /  9.5 °C 48.2 °F /  9.0 °C 29.9in /  1011.1hPa SSW 6mph /  9.7km/h 11.2mph /  18.0km/h 95% 0in /  0.0mm
12:08 49.3 °F /  9.6 °C 48.2 °F /  9.0 °C 29.9in /  1011.1hPa SSW 6.5mph /  10.5km/h 10.7mph /  17.2km/h 95% 0in /  0.0mm
12:13 49.6 °F /  9.8 °C 48.2 °F /  9.0 °C 29.9in /  1011.1hPa SSW 5.4mph /  8.7km/h 10.7mph /  17.2km/h 95% 0in /  0.0mm
12:18 49.6 °F /  9.8 °C 48.2 °F /  9.0 °C 29.9in /  1011.1hPa SW 7.2mph /  11.6km/h 8.7mph /  14.0km/h 94% 0in /  0.0mm
12:24 49.6 °F /  9.8 °C 48.2 °F /  9.0 °C 29.9in /  1011.1hPa SW 7.6mph /  12.2km/h 10.3mph /  16.6km/h 94% 0in /  0.0mm
12:29 49.8 °F /  9.9 °C 48.2 °F /  9.0 °C 29.8in /  1010.0hPa SW 6mph /  9.7km/h 10.3mph /  16.6km/h 93% 0in /  0.0mm
12:34 49.8 °F /  9.9 °C 48.2 °F /  9.0 °C 29.8in /  1010.0hPa WSW 5.6mph /  9.0km/h 9.8mph /  15.8km/h 93% 0in /  0.0mm
12:39 49.8 °F /  9.9 °C 48.2 °F /  9.0 °C 29.8in /  1010.0hPa SSW 6.7mph /  10.8km/h 11.4mph /  18.3km/h 92% 0in /  0.0mm
12:44 50 °F /  10.0 °C 48.2 °F /  9.0 °C 29.9in /  1011.1hPa SSW 6mph /  9.7km/h 11.4mph /  18.3km/h 92% 0in /  0.0mm
12:49 50 °F /  10.0 °C 48.2 °F /  9.0 °C 29.9in /  1011.1hPa SSW 5.4mph /  8.7km/h 10.1mph /  16.3km/h 92% 0in /  0.0mm
12:54 50 °F /  10.0 °C 48.2 °F /  9.0 °C 29.9in /  1011.1hPa SSW 4.9mph /  7.9km/h 10.1mph /  16.3km/h 91% 0in /  0.0mm
12:59 50.2 °F /  10.1 °C 48.2 °F /  9.0 °C 29.8in /  1010.0hPa SW 5.4mph /  8.7km/h 9.2mph /  14.8km/h 91% 0in /  0.0mm
13:04 50.2 °F /  10.1 °C 48.2 °F /  9.0 °C 29.8in /  1010.0hPa SW 4mph /  6.4km/h 8.7mph /  14.0km/h 91% 0in /  0.0mm
13:09 50.4 °F /  10.2 °C 48.2 °F /  9.0 °C 29.8in /  1010.0hPa SW 7.6mph /  12.2km/h 8.7mph /  14.0km/h 90% 0in /  0.0mm
13:14 50.4 °F /  10.2 °C 48.2 °F /  9.0 °C 29.8in /  1010.0hPa SW 6mph /  9.7km/h 10.3mph /  16.6km/h 90% 0in /  0.0mm
13:19 50.4 °F /  10.2 °C 48.2 °F /  9.0 °C 29.8in /  1010.0hPa SW 6.5mph /  10.5km/h 10.3mph /  16.6km/h 90% 0in /  0.0mm
13:24 50.5 °F /  10.3 °C 48.2 °F /  9.0 °C 29.8in /  1010.0hPa SSW 7.8mph /  12.6km/h 9.8mph /  15.8km/h 89% 0in /  0.0mm
13:29 50.5 °F /  10.3 °C 48.2 °F /  9.0 °C 29.9in /  1011.1hPa SSW 6.9mph /  11.1km/h 9.8mph /  15.8km/h 89% 0in /  0.0mm
13:34 50.5 °F /  10.3 °C 48.2 °F /  9.0 °C 29.9in /  1011.1hPa WSW 6.5mph /  10.5km/h 9.8mph /  15.8km/h 88% 0in /  0.0mm
13:39 50.5 °F /  10.3 °C 48.2 °F /  9.0 °C 29.9in /  1011.1hPa SW 6.3mph /  10.1km/h 10.1mph /  16.3km/h 87% 0in /  0.0mm
13:44 50.4 °F /  10.2 °C 48.2 °F /  9.0 °C 29.8in /  1010.0hPa SW 9.6mph /  15.4km/h 10.5mph /  16.9km/h 87% 0in /  0.0mm
13:49 50.4 °F /  10.2 °C 48.2 °F /  9.0 °C 29.8in /  1010.0hPa SW 8.5mph /  13.7km/h 10.5mph /  16.9km/h 87% 0in /  0.0mm
13:54 50.5 °F /  10.3 °C 48.2 °F /  9.0 °C 29.8in /  1010.0hPa WSW 5.6mph /  9.0km/h 10.7mph /  17.2km/h 87% 0in /  0.0mm
13:59 50.7 °F /  10.4 °C 48.2 °F /  9.0 °C 29.8in /  1010.0hPa SSW 4.9mph /  7.9km/h 10.7mph /  17.2km/h 87% 0in /  0.0mm
14:04 50.7 °F /  10.4 °C 46.4 °F /  8.0 °C 29.8in /  1010.0hPa WSW 9.6mph /  15.4km/h 10.7mph /  17.2km/h 86% 0in /  0.0mm
14:09 50.5 °F /  10.3 °C 46.4 °F /  8.0 °C 29.8in /  1010.0hPa SW 6.3mph /  10.1km/h 10.7mph /  17.2km/h 86% 0in /  0.0mm
14:14 50.7 °F /  10.4 °C 46.4 °F /  8.0 °C 29.8in /  1010.0hPa WSW 5.8mph /  9.3km/h 9.8mph /  15.8km/h 86% 0in /  0.0mm
14:19 50.7 °F /  10.4 °C 46.4 °F /  8.0 °C 29.8in /  1010.0hPa WSW 6.9mph /  11.1km/h 10.5mph /  16.9km/h 85% 0in /  0.0mm
14:24 50.7 °F /  10.4 °C 46.4 °F /  8.0 °C 29.8in /  1010.0hPa WSW 9.6mph /  15.4km/h 10.7mph /  17.2km/h 85% 0in /  0.0mm
14:29 50.7 °F /  10.4 °C 46.4 °F /  8.0 °C 29.8in /  1010.0hPa WSW 7.2mph /  11.6km/h 10.7mph /  17.2km/h 85% 0in /  0.0mm
14:34 50.5 °F /  10.3 °C 46.4 °F /  8.0 °C 29.8in /  1010.0hPa WSW 7.4mph /  11.9km/h 10.5mph /  16.9km/h 85% 0in /  0.0mm
14:39 50.4 °F /  10.2 °C 46.4 °F /  8.0 °C 29.8in /  1010.0hPa WSW 6mph /  9.7km/h 10.5mph /  16.9km/h 85% 0in /  0.0mm
14:44 50.2 °F /  10.1 °C 46.4 °F /  8.0 °C 29.8in /  1010.0hPa SW 6.5mph /  10.5km/h 8.9mph /  14.3km/h 85% 0in /  0.0mm
14:49 50.2 °F /  10.1 °C 46.4 °F /  8.0 °C 29.8in /  1010.0hPa WSW 4.9mph /  7.9km/h 8.7mph /  14.0km/h 85% 0in /  0.0mm
14:54 50.2 °F /  10.1 °C 46.4 °F /  8.0 °C 29.8in /  1010.0hPa SW 5.4mph /  8.7km/h 8.7mph /  14.0km/h 85% 0in /  0.0mm
14:59 50 °F /  10.0 °C 46.4 °F /  8.0 °C 29.8in /  1009.0hPa SSW 3.8mph /  6.1km/h 7.4mph /  11.9km/h 85% 0in /  0.0mm
15:05 49.8 °F /  9.9 °C 46.4 °F /  8.0 °C 29.8in /  1009.0hPa SW 6mph /  9.7km/h 9.6mph /  15.4km/h 85% 0in /  0.0mm
15:10 49.8 °F /  9.9 °C 46.4 °F /  8.0 °C 29.8in /  1009.0hPa WSW 7.2mph /  11.6km/h 9.6mph /  15.4km/h 85% 0in /  0.0mm
15:15 49.6 °F /  9.8 °C 46.4 °F /  8.0 °C 29.8in /  1010.0hPa WSW 7.4mph /  11.9km/h 9.8mph /  15.8km/h 85% 0in /  0.0mm
15:20 49.6 °F /  9.8 °C 46.4 °F /  8.0 °C 29.8in /  1010.0hPa WSW 7.4mph /  11.9km/h 11mph /  17.7km/h 85% 0in /  0.0mm
15:25 49.5 °F /  9.7 °C 46.4 °F /  8.0 °C 29.8in /  1010.0hPa SSW 5.8mph /  9.3km/h 11mph /  17.7km/h 85% 0in /  0.0mm
15:30 49.5 °F /  9.7 °C 46.4 °F /  8.0 °C 29.8in /  1010.0hPa SW 6.5mph /  10.5km/h 7.6mph /  12.2km/h 85% 0in /  0.0mm
15:35 49.3 °F /  9.6 °C 46.4 °F /  8.0 °C 29.8in /  1010.0hPa SW 4.9mph /  7.9km/h 8.1mph /  13.0km/h 85% 0in /  0.0mm
15:40 49.3 °F /  9.6 °C 46.4 °F /  8.0 °C 29.8in /  1010.0hPa SW 4.9mph /  7.9km/h 8.1mph /  13.0km/h 85% 0in /  0.0mm
15:45 49.3 °F /  9.6 °C 46.4 °F /  8.0 °C 29.8in /  1010.0hPa South 5.4mph /  8.7km/h 7.4mph /  11.9km/h 85% 0in /  0.0mm
15:51 49.1 °F /  9.5 °C 46.4 °F /  8.0 °C 29.8in /  1010.0hPa SW 6mph /  9.7km/h 7.2mph /  11.6km/h 86% 0in /  0.0mm
15:56 48.9 °F /  9.4 °C 44.6 °F /  7.0 °C 29.8in /  1010.0hPa SSW 4.9mph /  7.9km/h 7.2mph /  11.6km/h 86% 0in /  0.0mm
16:01 48.9 °F /  9.4 °C 44.6 °F /  7.0 °C 29.8in /  1010.0hPa WSW 6.5mph /  10.5km/h 7.6mph /  12.2km/h 86% 0in /  0.0mm
16:06 48.9 °F /  9.4 °C 44.6 °F /  7.0 °C 29.8in /  1010.0hPa WSW 5.8mph /  9.3km/h 7.8mph /  12.6km/h 86% 0in /  0.0mm
16:11 48.9 °F /  9.4 °C 44.6 °F /  7.0 °C 29.8in /  1010.0hPa WSW 3.6mph /  5.8km/h 7.8mph /  12.6km/h 86% 0in /  0.0mm
16:16 48.7 °F /  9.3 °C 44.6 °F /  7.0 °C 29.8in /  1010.0hPa Calm   6.5mph /  10.5km/h 86% 0in /  0.0mm
16:21 48.7 °F /  9.3 °C 44.6 °F /  7.0 °C 29.8in /  1010.0hPa SW 3.8mph /  6.1km/h 6.5mph /  10.5km/h 86% 0in /  0.0mm
16:26 48.7 °F /  9.3 °C 44.6 °F /  7.0 °C 29.8in /  1010.0hPa SW 1.3mph /  2.1km/h 6.3mph /  10.1km/h 86% 0in /  0.0mm
16:31 48.7 °F /  9.3 °C 44.6 °F /  7.0 °C 29.8in /  1010.0hPa Calm   6.3mph /  10.1km/h 86% 0in /  0.0mm
16:36 48.7 °F /  9.3 °C 44.6 °F /  7.0 °C 29.8in /  1010.0hPa SSW 5.6mph /  9.0km/h 7.8mph /  12.6km/h 86% 0in /  0.0mm
16:41 48.6 °F /  9.2 °C 44.6 °F /  7.0 °C 29.8in /  1010.0hPa WSW 5.6mph /  9.0km/h 7.8mph /  12.6km/h 86% 0in /  0.0mm
16:46 48.6 °F /  9.2 °C 44.6 °F /  7.0 °C 29.8in /  1010.0hPa SW 5.6mph /  9.0km/h 8.1mph /  13.0km/h 86% 0in /  0.0mm
16:51 48.4 °F /  9.1 °C 44.6 °F /  7.0 °C 29.8in /  1010.0hPa SW 8.1mph /  13.0km/h 8.1mph /  13.0km/h 86% 0in /  0.0mm
16:56 48.2 °F /  9.0 °C 44.6 °F /  7.0 °C 29.8in /  1010.0hPa SW 5.8mph /  9.3km/h 8.1mph /  13.0km/h 86% 0in /  0.0mm
17:01 48.2 °F /  9.0 °C 44.6 °F /  7.0 °C 29.8in /  1010.0hPa SW 5.4mph /  8.7km/h 8.1mph /  13.0km/h 86% 0in /  0.0mm
17:06 48 °F /  8.9 °C 44.6 °F /  7.0 °C 29.8in /  1010.0hPa SW 2.9mph /  4.7km/h 6.7mph /  10.8km/h 87% 0in /  0.0mm
17:11 47.8 °F /  8.8 °C 44.6 °F /  7.0 °C 29.8in /  1010.0hPa SW 3.6mph /  5.8km/h 6.3mph /  10.1km/h 87% 0in /  0.0mm
17:16 47.7 °F /  8.7 °C 44.6 °F /  7.0 °C 29.8in /  1010.0hPa Calm   6.7mph /  10.8km/h 87% 0in /  0.0mm
17:21 47.7 °F /  8.7 °C 44.6 °F /  7.0 °C 29.8in /  1010.0hPa WSW 4.9mph /  7.9km/h 6.7mph /  10.8km/h 88% 0in /  0.0mm
17:26 47.5 °F /  8.6 °C 44.6 °F /  7.0 °C 29.8in /  1010.0hPa Calm   6mph /  9.7km/h 88% 0in /  0.0mm
17:31 47.5 °F /  8.6 °C 44.6 °F /  7.0 °C 29.8in /  1010.0hPa SSW 4mph /  6.4km/h 6mph /  9.7km/h 89% 0in /  0.0mm
17:36 47.5 °F /  8.6 °C 44.6 °F /  7.0 °C 29.8in /  1010.0hPa Calm   6mph /  9.7km/h 89% 0in /  0.0mm
17:41 47.5 °F /  8.6 °C 44.6 °F /  7.0 °C 29.8in /  1010.0hPa Calm   6mph /  9.7km/h 89% 0in /  0.0mm
17:46 47.3 °F /  8.5 °C 44.6 °F /  7.0 °C 29.8in /  1010.0hPa Calm   6mph /  9.7km/h 90% 0in /  0.0mm
17:51 47.3 °F /  8.5 °C 44.6 °F /  7.0 °C 29.8in /  1010.0hPa Calm   4.3mph /  6.9km/h 90% 0in /  0.0mm
17:56 47.1 °F /  8.4 °C 44.6 °F /  7.0 °C 29.8in /  1010.0hPa Calm     90% 0in /  0.0mm
18:01 46.9 °F /  8.3 °C 44.6 °F /  7.0 °C 29.8in /  1010.0hPa Calm   0.9mph /  1.4km/h 90% 0in /  0.0mm
18:06 46.8 °F /  8.2 °C 44.6 °F /  7.0 °C 29.8in /  1010.0hPa Calm   1.6mph /  2.6km/h 90% 0in /  0.0mm
18:11 46.6 °F /  8.1 °C 44.6 °F /  7.0 °C 29.8in /  1010.0hPa Calm   1.6mph /  2.6km/h 90% 0in /  0.0mm
18:16 46.2 °F /  7.9 °C 44.6 °F /  7.0 °C 29.8in /  1010.0hPa Calm     91% 0in /  0.0mm
18:21 46 °F /  7.8 °C 42.8 °F /  6.0 °C 29.8in /  1010.0hPa Calm     91% 0in /  0.0mm
18:26 45.9 °F /  7.7 °C 42.8 °F /  6.0 °C 29.8in /  1010.0hPa Calm     91% 0in /  0.0mm
18:31 45.7 °F /  7.6 °C 42.8 °F /  6.0 °C 29.9in /  1011.1hPa Calm     91% 0in /  0.0mm
18:37 45.5 °F /  7.5 °C 42.8 °F /  6.0 °C 29.9in /  1011.1hPa Calm   2.2mph /  3.5km/h 92% 0in /  0.0mm
18:42 45.5 °F /  7.5 °C 42.8 °F /  6.0 °C 29.9in /  1011.1hPa Calm   2.2mph /  3.5km/h 92% 0in /  0.0mm
18:47 45.5 °F /  7.5 °C 44.6 °F /  7.0 °C 29.9in /  1011.1hPa Calm     93% 0in /  0.0mm
18:52 45.5 °F /  7.5 °C 44.6 °F /  7.0 °C 29.9in /  1011.1hPa Calm     93% 0in /  0.0mm
18:57 45.3 °F /  7.4 °C 42.8 °F /  6.0 °C 29.9in /  1011.1hPa Calm     93% 0in /  0.0mm
19:02 45.3 °F /  7.4 °C 42.8 °F /  6.0 °C 29.9in /  1011.1hPa Calm     94% 0in /  0.0mm
19:07 45.3 °F /  7.4 °C 42.8 °F /  6.0 °C 29.9in /  1011.1hPa Calm   3.4mph /  5.5km/h 94% 0in /  0.0mm
19:12 45.3 °F /  7.4 °C 42.8 °F /  6.0 °C 29.9in /  1011.1hPa Calm   3.4mph /  5.5km/h 94% 0in /  0.0mm
19:17 45.3 °F /  7.4 °C 44.6 °F /  7.0 °C 29.9in /  1011.1hPa Calm   1.1mph /  1.8km/h 95% 0in /  0.0mm
19:22 45.3 °F /  7.4 °C 44.6 °F /  7.0 °C 29.9in /  1011.1hPa Calm     95% 0in /  0.0mm
19:27 45.1 °F /  7.3 °C 44.6 °F /  7.0 °C 29.9in /  1011.1hPa Calm     95% 0in /  0.0mm
19:32 45.1 °F /  7.3 °C 44.6 °F /  7.0 °C 29.9in /  1011.1hPa Calm     95% 0in /  0.0mm
19:37 45.1 °F /  7.3 °C 44.6 °F /  7.0 °C 29.9in /  1011.1hPa Calm   3.4mph /  5.5km/h 95% 0in /  0.0mm
19:42 45.1 °F /  7.3 °C 44.6 °F /  7.0 °C 29.9in /  1011.1hPa Calm   3.4mph /  5.5km/h 95% 0in /  0.0mm
19:47 45.1 °F /  7.3 °C 44.6 °F /  7.0 °C 29.9in /  1011.1hPa Calm     96% 0in /  0.0mm
19:52 45.1 °F /  7.3 °C 44.6 °F /  7.0 °C 29.9in /  1011.1hPa Calm     96% 0in /  0.0mm
19:57 45.1 °F /  7.3 °C 44.6 °F /  7.0 °C 29.9in /  1011.1hPa Calm   1.6mph /  2.6km/h 96% 0in /  0.0mm
20:02 45 °F /  7.2 °C 44.6 °F /  7.0 °C 29.9in /  1011.1hPa Calm   4.7mph /  7.6km/h 96% 0in /  0.0mm
20:07 45 °F /  7.2 °C 44.6 °F /  7.0 °C 29.9in /  1011.1hPa Calm   4.7mph /  7.6km/h 96% 0in /  0.0mm
20:12 45 °F /  7.2 °C 44.6 °F /  7.0 °C 29.9in /  1011.1hPa SSW 2.7mph /  4.3km/h 4mph /  6.4km/h 96% 0in /  0.0mm
20:17 45 °F /  7.2 °C 44.6 °F /  7.0 °C 29.9in /  1011.1hPa SSW 2.9mph /  4.7km/h 4.9mph /  7.9km/h 96% 0in /  0.0mm
20:22 45 °F /  7.2 °C 44.6 °F /  7.0 °C 29.9in /  1011.1hPa SSW 1.3mph /  2.1km/h 4.9mph /  7.9km/h 96% 0in /  0.0mm
20:27 45.1 °F /  7.3 °C 44.6 °F /  7.0 °C 29.9in /  1011.1hPa SW 3.1mph /  5.0km/h 4.9mph /  7.9km/h 97% 0in /  0.0mm
20:32 45.1 °F /  7.3 °C 44.6 °F /  7.0 °C 29.9in /  1011.1hPa Calm   4.9mph /  7.9km/h 97% 0in /  0.0mm
20:37 45.1 °F /  7.3 °C 44.6 °F /  7.0 °C 29.9in /  1011.1hPa Calm   4.9mph /  7.9km/h 97% 0in /  0.0mm
20:42 45.1 °F /  7.3 °C 44.6 °F /  7.0 °C 29.9in /  1011.1hPa Calm   4.7mph /  7.6km/h 96% 0in /  0.0mm
20:47 45 °F /  7.2 °C 44.6 °F /  7.0 °C 29.9in /  1011.1hPa Calm   4.7mph /  7.6km/h 96% 0in /  0.0mm
20:52 44.8 °F /  7.1 °C 44.6 °F /  7.0 °C 29.9in /  1011.1hPa Calm   4.7mph /  7.6km/h 96% 0in /  0.0mm
20:57 44.8 °F /  7.1 °C 44.6 °F /  7.0 °C 29.9in /  1011.1hPa South 4.9mph /  7.9km/h 5.4mph /  8.7km/h 96% 0in /  0.0mm
21:02 44.6 °F /  7.0 °C 44.6 °F /  7.0 °C 29.9in /  1012.1hPa Calm   5.4mph /  8.7km/h 96% 0in /  0.0mm
21:08 44.6 °F /  7.0 °C 44.6 °F /  7.0 °C 29.9in /  1012.1hPa Calm   6.3mph /  10.1km/h 96% 0in /  0.0mm
21:13 44.4 °F /  6.9 °C 44.6 °F /  7.0 °C 29.9in /  1012.1hPa South 3.6mph /  5.8km/h 6.3mph /  10.1km/h 97% 0in /  0.0mm
21:18 44.2 °F /  6.8 °C 42.8 °F /  6.0 °C 29.9in /  1012.1hPa South 1.1mph /  1.8km/h 5.4mph /  8.7km/h 97% 0in /  0.0mm
21:23 44.1 °F /  6.7 °C 42.8 °F /  6.0 °C 29.9in /  1012.1hPa Calm   3.6mph /  5.8km/h 97% 0in /  0.0mm
21:28 44.1 °F /  6.7 °C 42.8 °F /  6.0 °C 29.9in /  1012.1hPa SSW 2mph /  3.2km/h 4.7mph /  7.6km/h 97% 0in /  0.0mm
21:33 43.9 °F /  6.6 °C 42.8 °F /  6.0 °C 29.9in /  1011.1hPa Calm   4.7mph /  7.6km/h 97% 0in /  0.0mm
21:37 43.7 °F /  6.5 °C 42.8 °F /  6.0 °C 29.9in /  1011.1hPa Calm   3.8mph /  6.1km/h 97% 0in /  0.0mm
21:43 43.7 °F /  6.5 °C 42.8 °F /  6.0 °C 29.9in /  1011.1hPa Calm   3.8mph /  6.1km/h 97% 0in /  0.0mm
21:48 43.7 °F /  6.5 °C 42.8 °F /  6.0 °C 29.9in /  1011.1hPa SSW 4mph /  6.4km/h 5.6mph /  9.0km/h 97% 0in /  0.0mm
21:53 43.7 °F /  6.5 °C 44.6 °F /  7.0 °C 29.9in /  1011.1hPa SSW 4mph /  6.4km/h 6mph /  9.7km/h 98% 0in /  0.0mm
21:58 43.9 °F /  6.6 °C 44.6 °F /  7.0 °C 29.9in /  1011.1hPa SSW 3.8mph /  6.1km/h 6.7mph /  10.8km/h 98% 0in /  0.0mm
22:03 43.7 °F /  6.5 °C 44.6 °F /  7.0 °C 29.8in /  1010.0hPa SSW 4mph /  6.4km/h 6.7mph /  10.8km/h 98% 0in /  0.0mm
22:08 43.9 °F /  6.6 °C 44.6 °F /  7.0 °C 29.8in /  1010.0hPa SW 4.7mph /  7.6km/h 6mph /  9.7km/h 98% 0in /  0.0mm
22:13 43.7 °F /  6.5 °C 44.6 °F /  7.0 °C 29.8in /  1010.0hPa SW 4.9mph /  7.9km/h 6mph /  9.7km/h 98% 0in /  0.0mm
22:18 43.7 °F /  6.5 °C 44.6 °F /  7.0 °C 29.9in /  1011.1hPa SSW 3.6mph /  5.8km/h 5.4mph /  8.7km/h 98% 0in /  0.0mm
22:23 43.7 °F /  6.5 °C 44.6 °F /  7.0 °C 29.9in /  1011.1hPa Calm   4.9mph /  7.9km/h 98% 0in /  0.0mm
22:28 43.7 °F /  6.5 °C 44.6 °F /  7.0 °C 29.9in /  1011.1hPa SW 3.6mph /  5.8km/h 4mph /  6.4km/h 98% 0in /  0.0mm
22:33 43.7 °F /  6.5 °C 44.6 °F /  7.0 °C 29.9in /  1011.1hPa Calm   4mph /  6.4km/h 98% 0in /  0.0mm
22:38 43.7 °F /  6.5 °C 44.6 °F /  7.0 °C 29.9in /  1011.1hPa SSW 4.7mph /  7.6km/h 4.7mph /  7.6km/h 98% 0in /  0.0mm
22:43 43.7 °F /  6.5 °C 44.6 °F /  7.0 °C 29.9in /  1011.1hPa SSW 4.3mph /  6.9km/h 6.3mph /  10.1km/h 98% 0in /  0.0mm
22:48 43.5 °F /  6.4 °C 42.8 °F /  6.0 °C 29.9in /  1011.1hPa South 3.4mph /  5.5km/h 6.3mph /  10.1km/h 98% 0in /  0.0mm
22:53 43.5 °F /  6.4 °C 42.8 °F /  6.0 °C 29.9in /  1011.1hPa Calm   4.3mph /  6.9km/h 98% 0in /  0.0mm
22:58 43.3 °F /  6.3 °C 42.8 °F /  6.0 °C 29.9in /  1011.1hPa Calm   4mph /  6.4km/h 98% 0in /  0.0mm
23:03 43.3 °F /  6.3 °C 42.8 °F /  6.0 °C 29.9in /  1011.1hPa SSW 2mph /  3.2km/h 2.7mph /  4.3km/h 98% 0in /  0.0mm
23:08 43.2 °F /  6.2 °C 42.8 °F /  6.0 °C 29.9in /  1011.1hPa Calm   3.6mph /  5.8km/h 98% 0in /  0.0mm
23:13 43 °F /  6.1 °C 42.8 °F /  6.0 °C 29.9in /  1011.1hPa Calm   3.6mph /  5.8km/h 98% 0in /  0.0mm
23:18 43 °F /  6.1 °C 42.8 °F /  6.0 °C 29.9in /  1011.1hPa Calm   3.6mph /  5.8km/h 98% 0in /  0.0mm
23:23 43 °F /  6.1 °C 42.8 °F /  6.0 °C 29.9in /  1011.1hPa SSW 1.6mph /  2.6km/h 3.8mph /  6.1km/h 98% 0in /  0.0mm
23:28 43 °F /  6.1 °C 42.8 °F /  6.0 °C 29.9in /  1011.1hPa Calm   3.8mph /  6.1km/h 98% 0in /  0.0mm
23:33 43 °F /  6.1 °C 42.8 °F /  6.0 °C 29.9in /  1011.1hPa Calm   3.4mph /  5.5km/h 98% 0in /  0.0mm
23:38 42.8 °F /  6.0 °C 42.8 °F /  6.0 °C 29.9in /  1011.1hPa SSW 2.2mph /  3.5km/h 3.4mph /  5.5km/h 98% 0in /  0.0mm
23:43 42.8 °F /  6.0 °C 42.8 °F /  6.0 °C 29.9in /  1011.1hPa Calm   4mph /  6.4km/h 98% 0in /  0.0mm
23:48 42.6 °F /  5.9 °C 42.8 °F /  6.0 °C 29.9in /  1011.1hPa Calm   4mph /  6.4km/h 98% 0in /  0.0mm
23:53 42.6 °F /  5.9 °C 42.8 °F /  6.0 °C 29.9in /  1011.1hPa SSW 2.2mph /  3.5km/h 4mph /  6.4km/h 98% 0in /  0.0mm
23:59 42.4 °F /  5.8 °C 42.8 °F /  6.0 °C 29.9in /  1011.1hPa SW 3.8mph /  6.1km/h 5.8mph /  9.3km/h 98% 0in /  0.0mm
Données Historique de Météo Turbie

Mise a jour : 21/05/2018 16:46:12
Généré par Cumulus 1.9.4 (1099)